Time;durP1;ratioP1;P1;durP2;ratioP2;P2;SDS_P1;SDS_P2;PMS_P1;PMS_P2;Temp;Humidity;BMP_temperature;BMP_pressure;BME280_temperature;BME280_humidity;BME280_pressure;Samples;Min_cycle;Max_cycle;Signal;HPM_P1;HPM_P2
2023/11/10 00:03:13;;;;;;;3.37;2.37;;;7.90;93.40;;;;;;766620;183;26467;-87
2023/11/10 00:05:40;;;;;;;6.10;2.17;;;7.90;93.50;;;;;;766293;187;26517;-85
2023/11/10 00:08:16;;;;;;;3.80;2.20;;;7.90;93.60;;;;;;768360;186;27062;-85
2023/11/10 00:10:47;;;;;;;5.03;2.03;;;8.00;93.90;;;;;;796001;180;27023;-86
2023/11/10 00:13:16;;;;;;;3.20;2.20;;;8.00;93.60;;;;;;791815;178;26442;-87
2023/11/10 00:15:47;;;;;;;5.43;2.40;;;8.00;93.40;;;;;;790146;182;26468;-84
2023/11/10 00:18:22;;;;;;;2.93;1.90;;;7.90;93.40;;;;;;790136;177;26985;-86
2023/11/10 00:20:52;;;;;;;4.87;2.23;;;7.80;94.00;;;;;;792773;180;28031;-86
2023/11/10 00:23:23;;;;;;;5.57;2.20;;;7.80;94.00;;;;;;793002;177;26662;-86
2023/11/10 00:28:40;;;;;;;7.87;2.40;;;7.70;94.40;;;;;;771177;186;26516;-87
2023/11/10 00:31:21;;;;;;;3.43;1.93;;;7.80;94.80;;;;;;771280;184;26779;-86
2023/11/10 00:34:05;;;;;;;2.50;2.10;;;7.70;94.30;;;;;;770613;185;26525;-86
2023/11/10 00:36:33;;;;;;;5.17;2.17;;;7.60;94.80;;;;;;754941;177;26520;-88
2023/11/10 00:38:59;;;;;;;3.50;2.00;;;7.50;94.50;;;;;;796441;179;26465;-87
2023/11/10 00:41:25;;;;;;;1.93;1.63;;;7.60;95.00;;;;;;785679;181;26469;-88
2023/11/10 00:43:52;;;;;;;3.70;1.90;;;7.60;94.60;;;;;;784285;183;26477;-88
2023/11/10 00:46:18;;;;;;;3.63;1.80;;;7.70;94.70;;;;;;778216;183;27119;-88
2023/11/10 00:48:46;;;;;;;4.63;2.23;;;7.70;94.60;;;;;;793415;180;26445;-88
2023/11/10 00:51:13;;;;;;;3.30;2.00;;;7.80;94.50;;;;;;792726;182;26961;-90
2023/11/10 00:53:39;;;;;;;6.30;1.97;;;7.80;94.40;;;;;;791191;180;26438;-88
2023/11/10 00:56:06;;;;;;;3.80;2.00;;;7.90;94.20;;;;;;782128;184;26560;-88
2023/11/10 00:58:32;;;;;;;3.70;2.00;;;7.90;94.00;;;;;;798541;180;26449;-88
2023/11/10 01:00:59;;;;;;;3.13;2.10;;;8.00;94.30;;;;;;782941;184;26479;-89
2023/11/10 01:03:26;;;;;;;5.60;2.10;;;8.00;93.90;;;;;;792727;180;26463;-88
2023/11/10 01:05:57;;;;;;;3.87;2.00;;;8.10;93.80;;;;;;792358;180;27074;-91
2023/11/10 01:08:23;;;;;;;2.67;1.90;;;8.10;93.60;;;;;;769803;180;26500;-91
2023/11/10 01:10:50;;;;;;;3.50;2.00;;;8.10;93.70;;;;;;794978;177;26429;-91
2023/11/10 01:13:17;;;;;;;3.30;1.87;;;8.00;93.40;;;;;;771336;184;26490;-89
2023/11/10 01:15:43;;;;;;;3.20;2.20;;;7.90;93.10;;;;;;795830;180;26467;-89
2023/11/10 01:18:10;;;;;;;4.97;3.07;;;7.80;93.90;;;;;;782388;184;26811;-89
2023/11/10 01:20:36;;;;;;;7.13;3.60;;;8.00;93.80;;;;;;797309;180;26436;-89
2023/11/10 01:23:03;;;;;;;5.43;3.23;;;8.00;93.60;;;;;;782302;183;26486;-89
2023/11/10 01:25:30;;;;;;;7.57;2.80;;;8.00;93.90;;;;;;792982;180;26462;-88
2023/11/10 01:27:56;;;;;;;2.93;2.20;;;8.00;93.30;;;;;;795392;179;26445;-87
2023/11/10 01:30:23;;;;;;;4.03;2.10;;;8.00;93.60;;;;;;782437;183;26482;-89
2023/11/10 01:32:49;;;;;;;4.33;1.90;;;8.00;93.20;;;;;;797796;180;26456;-89
2023/11/10 01:35:16;;;;;;;4.30;1.90;;;8.00;92.80;;;;;;782464;184;26492;-88
2023/11/10 01:37:43;;;;;;;6.90;2.33;;;8.00;93.50;;;;;;791447;180;27000;-88
2023/11/10 01:40:10;;;;;;;2.33;1.73;;;8.10;93.80;;;;;;767120;185;26492;-89
2023/11/10 01:42:36;;;;;;;3.67;1.70;;;8.10;93.30;;;;;;762780;188;26499;-89
2023/11/10 01:45:03;;;;;;;4.50;2.00;;;8.10;92.90;;;;;;777854;184;27086;-90
2023/11/10 01:47:29;;;;;;;3.80;1.73;;;8.20;93.30;;;;;;767179;186;26488;-88
2023/11/10 01:49:56;;;;;;;3.70;1.80;;;8.20;93.30;;;;;;770944;184;26484;-89
2023/11/10 01:52:22;;;;;;;3.17;1.70;;;8.20;93.30;;;;;;768874;185;26460;-88
2023/11/10 01:54:49;;;;;;;2.77;1.57;;;8.20;92.80;;;;;;769096;187;26507;-88
2023/11/10 01:57:15;;;;;;;2.63;1.83;;;8.20;93.20;;;;;;768567;187;26482;-88
2023/11/10 01:59:42;;;;;;;6.93;2.00;;;8.20;93.50;;;;;;768541;187;27030;-88
2023/11/10 02:02:09;;;;;;;2.47;1.90;;;8.20;93.60;;;;;;774190;184;26464;-89
2023/11/10 02:04:36;;;;;;;2.93;1.80;;;8.20;92.90;;;;;;796368;180;26441;-88
2023/11/10 02:07:02;;;;;;;4.27;1.90;;;8.30;93.00;;;;;;792539;177;26470;-88
2023/11/10 02:09:28;;;;;;;4.00;1.70;;;8.30;92.90;;;;;;792564;182;26459;-89
2023/11/10 02:11:55;;;;;;;3.77;1.97;;;8.30;92.90;;;;;;792110;180;26476;-90
2023/11/10 02:14:22;;;;;;;4.07;2.30;;;8.30;93.80;;;;;;790587;180;26959;-91
2023/11/10 02:16:48;;;;;;;3.10;1.60;;;8.30;93.80;;;;;;792146;182;26498;-89
2023/11/10 02:19:15;;;;;;;5.10;2.00;;;8.30;93.80;;;;;;792233;181;26479;-89
2023/11/10 02:21:41;;;;;;;5.50;1.80;;;8.40;93.70;;;;;;776570;181;26486;-91
2023/11/10 02:24:08;;;;;;;5.17;1.80;;;8.40;93.40;;;;;;791009;177;26431;-93
2023/11/10 02:26:37;;;;;;;8.77;4.10;;;8.30;93.50;;;;;;787752;177;26490;-94
2023/11/10 02:34:36;;;;;;;6.07;2.33;;;8.00;94.40;;;;;;705361;179;26509;-90
2023/11/10 02:37:02;;;;;;;5.00;2.00;;;7.80;94.30;;;;;;748325;180;26538;-88
2023/11/10 02:39:29;;;;;;;7.73;3.10;;;7.80;94.70;;;;;;747990;180;26505;-89
2023/11/10 02:41:56;;;;;;;3.77;2.37;;;7.80;95.40;;;;;;746373;186;26682;-89
2023/11/10 02:44:22;;;;;;;7.37;2.33;;;7.70;95.40;;;;;;746352;186;26537;-90
2023/11/10 02:55:03;;;;;;;5.97;2.07;;;7.70;95.20;;;;;;793356;179;26441;-89
2023/11/10 03:03:12;;;;;;;2.83;2.07;;;7.70;95.10;;;;;;715864;173;26509;-89
2023/11/10 03:08:24;;;;;;;4.87;2.30;;;7.80;95.50;;;;;;766755;182;26545;-89
2023/11/10 03:11:01;;;;;;;3.47;2.10;;;7.80;95.40;;;;;;753163;188;26522;-89
2023/11/10 03:13:40;;;;;;;7.27;2.77;;;7.80;95.40;;;;;;759949;187;28110;-90
2023/11/10 03:16:07;;;;;;;3.80;2.53;;;7.80;95.70;;;;;;781877;179;26564;-90
2023/11/10 03:18:33;;;;;;;6.33;2.57;;;7.70;95.90;;;;;;781651;183;26492;-90
2023/11/10 03:21:00;;;;;;;4.60;2.50;;;7.80;95.80;;;;;;765409;188;26544;-90
2023/11/10 03:23:26;;;;;;;6.30;2.47;;;7.80;95.50;;;;;;777171;184;26467;-89
2023/11/10 03:25:55;;;;;;;6.23;2.97;;;7.90;94.90;;;;;;766475;185;26513;-90
2023/11/10 03:28:19;;;;;;;4.10;2.20;;;7.90;95.00;;;;;;751414;188;26498;-90
2023/11/10 03:30:46;;;;;;;7.47;2.30;;;8.00;94.70;;;;;;751407;191;26830;-90
2023/11/10 03:33:16;;;;;;;6.57;2.10;;;8.00;94.80;;;;;;751774;190;27132;-90
2023/11/10 03:35:39;;;;;;;4.83;1.80;;;8.00;94.60;;;;;;755468;188;26515;-90
2023/11/10 03:38:06;;;;;;;3.63;2.10;;;8.00;93.90;;;;;;767122;186;26516;-90
2023/11/10 03:40:32;;;;;;;3.30;1.90;;;8.00;94.30;;;;;;765100;187;26659;-90
2023/11/10 03:42:59;;;;;;;5.23;2.40;;;8.00;94.40;;;;;;765621;188;26503;-90
2023/11/10 03:45:26;;;;;;;6.30;2.40;;;8.10;94.80;;;;;;765056;187;26546;-90
2023/11/10 03:47:52;;;;;;;6.37;2.20;;;8.10;94.20;;;;;;762940;187;26510;-89
2023/11/10 03:50:19;;;;;;;3.30;1.90;;;8.10;94.40;;;;;;759611;187;26503;-90
2023/11/10 03:52:45;;;;;;;7.50;1.80;;;8.20;94.00;;;;;;756205;189;26507;-89
2023/11/10 03:55:13;;;;;;;5.47;2.10;;;8.20;93.80;;;;;;756599;189;26529;-90
2023/11/10 03:57:39;;;;;;;5.93;2.20;;;8.20;93.80;;;;;;756429;190;26551;-90
2023/11/10 04:00:07;;;;;;;7.40;2.40;;;8.30;93.90;;;;;;761948;188;26491;-90
2023/11/10 04:02:33;;;;;;;4.83;1.90;;;8.20;93.50;;;;;;766199;183;26512;-90
2023/11/10 04:04:59;;;;;;;2.63;1.80;;;8.20;94.00;;;;;;766023;187;27070;-90
2023/11/10 04:07:26;;;;;;;3.67;1.83;;;8.20;93.80;;;;;;765438;188;26508;-90
2023/11/10 04:09:53;;;;;;;3.37;1.90;;;8.20;93.90;;;;;;765978;188;26488;-90
2023/11/10 04:12:19;;;;;;;5.33;1.73;;;8.30;93.90;;;;;;763532;187;26501;-90
2023/11/10 04:14:48;;;;;;;6.67;2.20;;;8.20;93.50;;;;;;762279;186;26527;-90
2023/11/10 04:17:12;;;;;;;6.00;2.17;;;8.30;93.40;;;;;;765277;187;27052;-90
2023/11/10 04:19:39;;;;;;;7.20;2.30;;;8.30;92.90;;;;;;763034;185;26533;-90
2023/11/10 04:22:07;;;;;;;5.73;1.80;;;8.30;93.40;;;;;;766528;186;26512;-90
2023/11/10 04:24:33;;;;;;;9.30;2.00;;;8.40;92.70;;;;;;765881;188;26534;-89
2023/11/10 04:26:59;;;;;;;5.70;1.83;;;8.40;92.80;;;;;;765787;188;26508;-89
2023/11/10 04:29:25;;;;;;;4.23;1.90;;;8.40;92.60;;;;;;765781;187;26504;-89
2023/11/10 04:31:53;;;;;;;5.23;1.80;;;8.40;92.60;;;;;;765906;187;27087;-89
2023/11/10 04:34:19;;;;;;;3.90;1.80;;;8.50;92.50;;;;;;765197;187;26509;-90
2023/11/10 04:36:46;;;;;;;4.40;2.10;;;8.40;92.40;;;;;;761521;187;26562;-88
2023/11/10 04:39:12;;;;;;;3.43;1.70;;;8.30;92.20;;;;;;761655;188;27024;-89
2023/11/10 04:41:39;;;;;;;6.90;2.13;;;8.40;92.40;;;;;;765676;184;26500;-89
2023/11/10 04:44:05;;;;;;;4.27;1.60;;;8.40;92.00;;;;;;765795;187;26526;-88
2023/11/10 04:46:32;;;;;;;5.20;2.00;;;8.40;91.20;;;;;;766326;185;26552;-90
2023/11/10 04:48:58;;;;;;;6.03;1.90;;;8.30;91.10;;;;;;762680;183;26510;-90
2023/11/10 04:51:25;;;;;;;3.63;1.93;;;8.30;91.90;;;;;;764704;188;27044;-89
2023/11/10 04:53:52;;;;;;;5.40;2.47;;;8.20;92.10;;;;;;766067;183;26504;-91
2023/11/10 04:56:18;;;;;;;6.33;3.03;;;8.20;92.40;;;;;;764461;183;26517;-89
2023/11/10 04:58:45;;;;;;;4.33;2.30;;;8.20;92.90;;;;;;762417;183;26516;-91
2023/11/10 05:01:11;;;;;;;3.87;1.80;;;8.10;92.20;;;;;;759244;183;26523;-88
2023/11/10 05:03:38;;;;;;;5.50;2.00;;;8.10;92.10;;;;;;756494;189;26510;-88
2023/11/10 05:06:05;;;;;;;3.03;1.73;;;8.00;92.60;;;;;;758965;188;26543;-88
2023/11/10 05:08:31;;;;;;;5.60;1.90;;;8.00;92.70;;;;;;764698;188;26501;-88
2023/11/10 05:10:58;;;;;;;3.40;1.60;;;8.00;92.70;;;;;;765595;188;26509;-88
2023/11/10 05:13:25;;;;;;;4.07;2.10;;;8.10;92.40;;;;;;765566;187;26509;-89
2023/11/10 05:15:51;;;;;;;3.97;1.90;;;8.00;92.20;;;;;;765476;187;26516;-90
2023/11/10 05:18:20;;;;;;;4.50;2.00;;;8.10;92.30;;;;;;762797;187;26503;-89
2023/11/10 05:20:44;;;;;;;3.50;1.77;;;8.20;92.50;;;;;;765530;188;26507;-88
2023/11/10 05:23:13;;;;;;;6.03;2.33;;;8.10;92.20;;;;;;765638;188;26496;-88
2023/11/10 05:25:38;;;;;;;5.30;2.13;;;8.10;92.30;;;;;;765525;186;26535;-90
2023/11/10 05:28:04;;;;;;;5.43;2.03;;;8.20;92.00;;;;;;768242;187;27014;-87
2023/11/10 05:30:31;;;;;;;5.83;1.93;;;8.20;91.90;;;;;;765505;186;27080;-87
2023/11/10 05:32:57;;;;;;;5.17;2.70;;;8.20;91.50;;;;;;763226;188;26506;-87
2023/11/10 05:35:24;;;;;;;3.77;2.20;;;8.20;91.60;;;;;;766694;188;27123;-88
2023/11/10 05:37:51;;;;;;;6.70;2.00;;;8.10;92.00;;;;;;766313;187;26516;-87
2023/11/10 05:40:17;;;;;;;3.93;2.00;;;8.20;92.10;;;;;;766468;187;26533;-87
2023/11/10 05:42:44;;;;;;;3.43;2.00;;;8.10;91.60;;;;;;763898;188;27016;-88
2023/11/10 05:45:11;;;;;;;6.80;2.33;;;8.10;91.80;;;;;;763613;186;26863;-88
2023/11/10 05:47:37;;;;;;;3.83;1.80;;;8.20;92.20;;;;;;765947;188;26501;-88
2023/11/10 05:50:04;;;;;;;6.23;2.10;;;8.20;91.40;;;;;;765916;188;27056;-88
2023/11/10 05:52:31;;;;;;;6.53;2.10;;;8.20;91.40;;;;;;766046;187;26497;-87
2023/11/10 05:55:16;;;;;;;3.70;1.70;;;8.20;91.90;;;;;;760342;187;27100;-88
2023/11/10 05:57:43;;;;;;;4.70;2.23;;;8.10;91.40;;;;;;764308;186;26523;-88
2023/11/10 06:00:10;;;;;;;3.63;1.73;;;8.20;91.30;;;;;;761216;188;26496;-89
2023/11/10 06:02:36;;;;;;;4.40;1.93;;;8.10;91.80;;;;;;761136;187;26517;-89
2023/11/10 06:05:06;;;;;;;5.47;1.90;;;8.00;91.80;;;;;;762385;187;26511;-88
2023/11/10 06:07:32;;;;;;;4.17;2.47;;;8.10;91.70;;;;;;764356;188;26504;-88
2023/11/10 06:09:58;;;;;;;3.73;2.17;;;8.10;91.40;;;;;;765313;188;26497;-88
2023/11/10 06:12:25;;;;;;;4.90;2.43;;;8.10;92.40;;;;;;761847;187;26519;-89
2023/11/10 06:14:52;;;;;;;5.93;2.70;;;8.10;91.70;;;;;;760423;187;27096;-87
2023/11/10 06:17:18;;;;;;;4.07;2.03;;;8.10;91.90;;;;;;758872;188;26543;-89
2023/11/10 06:19:45;;;;;;;7.33;2.20;;;8.20;91.80;;;;;;762655;187;26529;-87
2023/11/10 06:22:11;;;;;;;5.73;2.70;;;8.20;91.80;;;;;;760215;188;26512;-88
2023/11/10 06:24:38;;;;;;;4.67;2.17;;;8.10;91.30;;;;;;762226;188;26515;-88
2023/11/10 06:27:05;;;;;;;7.53;3.13;;;8.20;91.90;;;;;;762665;188;27075;-89
2023/11/10 06:29:31;;;;;;;6.83;2.37;;;8.20;92.20;;;;;;760228;187;26491;-89
2023/11/10 06:31:58;;;;;;;4.33;2.13;;;8.20;92.00;;;;;;760310;187;26683;-88
2023/11/10 06:34:25;;;;;;;8.23;2.73;;;8.30;92.00;;;;;;763175;188;26501;-88
2023/11/10 06:36:51;;;;;;;5.17;2.50;;;8.20;91.40;;;;;;762260;188;26516;-87
2023/11/10 06:39:18;;;;;;;6.50;2.50;;;8.30;91.50;;;;;;763634;186;26492;-88
2023/11/10 06:41:45;;;;;;;6.70;2.17;;;8.20;91.70;;;;;;765645;187;26523;-88
2023/11/10 06:44:16;;;;;;;8.37;2.80;;;8.10;91.90;;;;;;763888;188;26487;-88
2023/11/10 06:46:38;;;;;;;4.43;2.73;;;8.10;91.70;;;;;;764035;188;26518;-88
2023/11/10 06:49:05;;;;;;;5.87;2.30;;;8.10;92.00;;;;;;760933;187;27087;-88
2023/11/10 06:51:32;;;;;;;6.40;2.40;;;8.10;91.60;;;;;;762089;188;26500;-87
2023/11/10 06:54:43;;;;;;;;;;;;;;;;;;;;;
2023/11/10 06:57:11;;;;;;;6.27;3.63;;;8.00;91.90;;;;;;757544;187;26523;-88
2023/11/10 06:59:34;;;;;;;4.97;2.73;;;7.90;91.90;;;;;;762920;188;26504;-87
2023/11/10 07:02:12;;;;;;;6.13;2.47;;;7.90;92.20;;;;;;762912;186;26532;-88
2023/11/10 07:04:36;;;;;;;6.27;2.37;;;8.00;92.60;;;;;;765303;187;27069;-88
2023/11/10 07:07:03;;;;;;;5.87;2.30;;;8.00;92.10;;;;;;763089;188;26497;-87
2023/11/10 07:09:29;;;;;;;8.03;2.80;;;8.00;92.10;;;;;;763611;187;26520;-88
2023/11/10 07:11:56;;;;;;;9.30;3.17;;;8.00;92.50;;;;;;764477;188;26506;-88
2023/11/10 07:14:23;;;;;;;5.30;2.63;;;8.20;91.50;;;;;;760484;188;26500;-88
2023/11/10 07:16:50;;;;;;;5.33;2.40;;;8.20;91.40;;;;;;764994;188;26500;-88
2023/11/10 07:19:18;;;;;;;7.40;2.63;;;8.30;91.40;;;;;;759441;187;26525;-88
2023/11/10 07:21:44;;;;;;;6.13;2.47;;;8.30;91.00;;;;;;757324;187;26550;-88
2023/11/10 07:24:09;;;;;;;5.83;2.23;;;8.30;91.60;;;;;;759739;188;27061;-87
2023/11/10 07:26:35;;;;;;;6.03;2.37;;;8.40;90.80;;;;;;756089;188;26541;-88
2023/11/10 07:29:03;;;;;;;6.83;2.40;;;8.40;90.50;;;;;;757474;188;28115;-88
2023/11/10 07:31:29;;;;;;;5.63;2.50;;;8.50;90.90;;;;;;764009;187;26546;-87
2023/11/10 07:33:55;;;;;;;6.83;2.90;;;8.50;90.50;;;;;;762940;188;26483;-87
2023/11/10 07:36:22;;;;;;;7.80;2.53;;;8.50;90.40;;;;;;760464;188;26516;-88
2023/11/10 07:38:52;;;;;;;4.90;3.10;;;8.60;90.80;;;;;;764121;188;26509;-88
2023/11/10 07:44:20;;;;;;;3.83;2.30;;;8.60;90.40;;;;;;762800;187;26503;-88
2023/11/10 07:46:47;;;;;;;4.23;2.10;;;8.60;90.30;;;;;;764842;188;26578;-88
2023/11/10 07:49:13;;;;;;;4.70;2.23;;;8.70;89.70;;;;;;757038;187;26509;-88
2023/11/10 07:51:40;;;;;;;3.53;2.50;;;8.80;89.00;;;;;;767731;186;26504;-88
2023/11/10 07:54:07;;;;;;;6.67;2.30;;;8.80;89.40;;;;;;767352;187;27054;-88
2023/11/10 07:56:33;;;;;;;4.67;2.20;;;8.80;89.20;;;;;;766970;188;26507;-88
2023/11/10 07:59:00;;;;;;;4.77;1.97;;;8.80;89.90;;;;;;762881;188;26526;-88
2023/11/10 08:01:26;;;;;;;3.83;2.10;;;8.80;89.10;;;;;;766356;188;26502;-88
2023/11/10 08:03:53;;;;;;;4.70;2.30;;;8.80;90.10;;;;;;766335;188;26505;-89
2023/11/10 08:06:20;;;;;;;5.57;2.40;;;8.80;89.30;;;;;;765215;187;27093;-89
2023/11/10 08:08:46;;;;;;;5.63;2.10;;;8.70;89.90;;;;;;763617;186;26666;-88
2023/11/10 08:11:14;;;;;;;9.77;3.23;;;8.60;90.20;;;;;;763351;187;27033;-88
2023/11/10 08:13:39;;;;;;;5.67;2.10;;;8.70;89.90;;;;;;762908;188;26506;-88
2023/11/10 08:16:06;;;;;;;2.67;1.97;;;8.80;90.20;;;;;;766230;183;26520;-89
2023/11/10 08:18:33;;;;;;;6.37;2.20;;;8.90;90.00;;;;;;763222;184;26508;-89
2023/11/10 08:21:00;;;;;;;4.63;2.30;;;9.00;88.70;;;;;;765948;188;26500;-89
2023/11/10 08:23:26;;;;;;;5.13;2.30;;;9.00;88.60;;;;;;765587;184;26501;-89
2023/11/10 08:25:52;;;;;;;10.50;2.80;;;9.10;88.40;;;;;;765503;188;27051;-89
2023/11/10 08:28:19;;;;;;;6.00;2.97;;;9.20;89.30;;;;;;762052;187;26520;-88
2023/11/10 08:30:47;;;;;;;10.20;3.47;;;9.30;88.20;;;;;;760432;187;27012;-89
2023/11/10 08:33:12;;;;;;;5.63;2.73;;;9.40;86.10;;;;;;761664;188;26517;-89
2023/11/10 08:35:39;;;;;;;9.33;3.20;;;9.50;86.00;;;;;;765369;188;26512;-89
2023/11/10 08:38:05;;;;;;;5.73;2.43;;;9.60;87.80;;;;;;765304;188;27079;-89
2023/11/10 08:40:32;;;;;;;4.03;2.17;;;9.70;85.30;;;;;;764218;187;26527;-89
2023/11/10 08:42:59;;;;;;;6.27;2.67;;;9.70;84.50;;;;;;760856;188;28101;-89
2023/11/10 08:45:26;;;;;;;7.80;2.27;;;9.80;85.90;;;;;;760959;187;26508;-89
2023/11/10 08:47:52;;;;;;;4.63;2.33;;;9.80;82.70;;;;;;758226;188;26504;-89
2023/11/10 08:50:18;;;;;;;6.33;2.23;;;9.90;85.20;;;;;;765304;187;26487;-89
2023/11/10 08:52:47;;;;;;;5.23;2.00;;;9.90;83.30;;;;;;765202;187;26503;-89
2023/11/10 08:55:12;;;;;;;4.90;1.90;;;9.80;82.30;;;;;;765005;187;26516;-88
2023/11/10 08:57:38;;;;;;;4.37;1.93;;;9.70;82.70;;;;;;764134;187;26501;-89
2023/11/10 09:00:07;;;;;;;5.07;1.93;;;9.60;84.10;;;;;;759852;188;26523;-89
2023/11/10 09:02:33;;;;;;;4.00;1.80;;;9.60;83.00;;;;;;758492;188;26503;-88
2023/11/10 09:04:59;;;;;;;4.67;1.70;;;9.60;85.20;;;;;;757823;189;26538;-89
2023/11/10 09:07:27;;;;;;;3.57;1.70;;;9.60;84.00;;;;;;757405;190;26545;-89
2023/11/10 09:09:52;;;;;;;5.47;2.37;;;9.60;83.20;;;;;;761572;188;26506;-89
2023/11/10 09:12:22;;;;;;;9.67;5.23;;;9.70;83.30;;;;;;762410;188;27059;-89
2023/11/10 10:01:54;;;;;;;6.50;2.40;;;11.70;73.00;;;;;;731880;174;26510;-88
2023/11/10 10:04:21;;;;;;;5.27;2.30;;;11.80;73.20;;;;;;789183;182;27015;-89
2023/11/10 10:06:48;;;;;;;5.60;1.93;;;11.40;72.60;;;;;;788634;181;26548;-89
2023/11/10 10:09:14;;;;;;;4.60;2.40;;;11.00;73.80;;;;;;787634;181;26460;-89
2023/11/10 10:11:41;;;;;;;5.17;2.13;;;10.90;75.00;;;;;;790258;182;27016;-89
2023/11/10 10:14:08;;;;;;;4.63;2.73;;;10.80;75.50;;;;;;782045;182;26457;-89
2023/11/10 10:27:38;;;;;;;4.30;2.47;;;11.30;72.80;;;;;;739032;175;26498;-89
2023/11/10 10:30:06;;;;;;;8.00;2.50;;;11.60;73.30;;;;;;790628;180;26420;-90
2023/11/10 10:32:33;;;;;;;3.57;2.07;;;11.70;72.80;;;;;;797926;180;26430;-90
2023/11/10 10:34:59;;;;;;;6.53;2.30;;;12.10;71.30;;;;;;797966;175;26444;-89
2023/11/10 10:37:25;;;;;;;5.37;2.50;;;12.60;67.90;;;;;;796670;179;26445;-89
2023/11/10 10:39:52;;;;;;;22.13;13.10;;;12.60;68.30;;;;;;795412;176;26455;-89
2023/11/10 10:42:19;;;;;;;5.23;1.50;;;12.80;67.70;;;;;;794025;178;26426;-90
2023/11/10 10:44:45;;;;;;;8.80;2.87;;;12.80;67.70;;;;;;774222;183;26499;-89
2023/11/10 10:47:12;;;;;;;5.47;2.87;;;12.30;67.10;;;;;;808420;176;26380;-89
2023/11/10 10:49:39;;;;;;;3.13;1.70;;;12.50;66.70;;;;;;803533;177;26408;-89
2023/11/10 10:52:06;;;;;;;9.33;3.70;;;11.70;68.50;;;;;;794141;180;26426;-89
2023/11/10 10:54:32;;;;;;;8.10;3.60;;;11.40;68.20;;;;;;794365;178;26548;-90
2023/11/10 10:57:01;;;;;;;4.60;2.20;;;11.80;68.60;;;;;;795068;178;26426;-92
2023/11/10 10:59:28;;;;;;;9.10;2.30;;;11.70;68.50;;;;;;803976;176;26385;-89
2023/11/10 11:01:52;;;;;;;8.03;3.03;;;11.70;70.80;;;;;;802291;178;26413;-89
2023/11/10 11:04:28;;;;;;;9.87;2.40;;;11.70;70.60;;;;;;804569;175;26365;-91
2023/11/10 11:07:26;;;;;;;5.60;2.33;;;11.60;69.60;;;;;;804719;179;26378;-88
2023/11/10 11:09:55;;;;;;;3.87;2.47;;;11.10;72.50;;;;;;801040;179;26407;-89
2023/11/10 11:12:28;;;;;;;6.83;2.50;;;10.90;72.20;;;;;;802007;176;26452;-89
2023/11/10 11:15:13;;;;;;;6.63;2.63;;;10.90;72.30;;;;;;794101;181;26449;-89
2023/11/10 11:17:49;;;;;;;3.40;1.90;;;10.90;72.70;;;;;;809997;176;26387;-89
2023/11/10 11:20:16;;;;;;;4.63;2.37;;;10.90;73.30;;;;;;811539;177;26363;-89
2023/11/10 11:22:43;;;;;;;12.40;5.20;;;10.90;70.70;;;;;;812472;176;26375;-89
2023/11/10 11:25:10;;;;;;;7.93;2.50;;;10.90;71.80;;;;;;808126;176;26360;-89
2023/11/10 11:27:37;;;;;;;11.53;3.77;;;10.90;73.30;;;;;;797651;174;26435;-88
2023/11/10 11:30:08;;;;;;;5.23;2.53;;;11.00;73.10;;;;;;795195;180;26435;-88
2023/11/10 11:32:40;;;;;;;7.87;3.13;;;11.10;72.10;;;;;;795263;179;26428;-89
2023/11/10 11:35:15;;;;;;;13.37;5.90;;;11.10;72.10;;;;;;793346;177;26362;-89
2023/11/10 11:37:44;;;;;;;4.80;2.00;;;11.20;71.10;;;;;;807239;177;26392;-89
2023/11/10 11:40:11;;;;;;;5.47;2.50;;;11.20;71.40;;;;;;806765;176;26919;-89
2023/11/10 11:42:41;;;;;;;32.13;17.87;;;11.20;73.10;;;;;;807788;173;26358;-89
2023/11/10 11:45:15;;;;;;;10.37;4.90;;;11.30;69.90;;;;;;802238;176;26436;-89
2023/11/10 11:47:42;;;;;;;33.13;17.43;;;11.20;69.40;;;;;;803834;176;26481;-89
2023/11/10 11:50:09;;;;;;;7.40;2.27;;;11.30;70.70;;;;;;811309;174;26355;-89
2023/11/10 11:52:34;;;;;;;12.73;6.60;;;11.10;71.90;;;;;;803413;176;26458;-89
2023/11/10 11:55:01;;;;;;;7.70;3.40;;;11.00;71.40;;;;;;801813;176;26359;-89
2023/11/10 11:57:28;;;;;;;16.77;8.67;;;11.10;71.40;;;;;;797229;176;26508;-88
2023/11/10 11:59:55;;;;;;;13.97;7.53;;;11.10;70.90;;;;;;794592;178;26447;-88
2023/11/10 12:02:21;;;;;;;8.70;3.90;;;11.00;72.20;;;;;;796297;176;26383;-88
2023/11/10 12:04:48;;;;;;;7.77;2.90;;;11.00;72.50;;;;;;807852;176;26354;-88
2023/11/10 12:07:14;;;;;;;10.57;5.97;;;10.90;73.10;;;;;;805011;176;26379;-88
2023/11/10 12:09:41;;;;;;;18.30;9.37;;;10.90;73.70;;;;;;802337;177;26940;-88
2023/11/10 12:12:09;;;;;;;60.10;31.47;;;10.90;74.50;;;;;;807248;176;26363;-88
2023/11/10 12:14:50;;;;;;;14.53;7.27;;;10.90;72.10;;;;;;809623;177;26922;-88
2023/11/10 12:17:16;;;;;;;8.03;3.90;;;10.90;72.50;;;;;;805746;176;26413;-88
2023/11/10 12:19:43;;;;;;;8.17;4.87;;;10.90;74.60;;;;;;795354;176;26429;-87
2023/11/10 12:22:10;;;;;;;8.67;3.20;;;10.90;72.20;;;;;;798928;177;26901;-87
2023/11/10 12:24:53;;;;;;;;;;;;;;;;;;;;;
2023/11/10 12:27:19;;;;;;;7.00;2.30;;;10.90;74.00;;;;;;795117;176;28115;-88
2023/11/10 12:29:46;;;;;;;18.67;9.77;;;10.80;73.10;;;;;;803440;176;26459;-89
2023/11/10 12:32:13;;;;;;;4.90;3.43;;;10.80;72.10;;;;;;811274;176;26444;-91
2023/11/10 12:34:39;;;;;;;12.70;6.87;;;10.90;73.20;;;;;;815131;176;26362;-90
2023/11/10 12:37:06;;;;;;;15.20;7.83;;;11.00;72.80;;;;;;814208;175;26367;-90
2023/11/10 12:39:32;;;;;;;21.67;11.53;;;11.10;72.50;;;;;;813579;174;26394;-90
2023/11/10 12:42:00;;;;;;;5.23;2.30;;;11.20;71.30;;;;;;813074;174;26891;-90
2023/11/10 12:44:26;;;;;;;5.80;3.30;;;11.30;72.00;;;;;;813090;177;26368;-88
2023/11/10 12:46:54;;;;;;;22.77;11.37;;;11.30;71.50;;;;;;812808;176;26708;-88
2023/11/10 12:49:20;;;;;;;39.10;21.27;;;11.30;71.70;;;;;;812812;177;26349;-88
2023/11/10 12:51:47;;;;;;;25.97;12.60;;;11.40;71.60;;;;;;812744;177;26429;-90
2023/11/10 12:54:13;;;;;;;6.03;3.37;;;11.40;71.70;;;;;;812533;177;26367;-88
2023/11/10 12:56:40;;;;;;;10.30;6.90;;;11.40;71.00;;;;;;812398;177;26391;-90
2023/11/10 12:59:09;;;;;;;3.73;2.53;;;11.50;71.00;;;;;;812428;177;26375;-88
2023/11/10 13:01:33;;;;;;;33.23;17.60;;;11.50;71.90;;;;;;812100;177;26367;-90
2023/11/10 13:04:00;;;;;;;11.97;6.60;;;11.50;71.20;;;;;;812441;177;26390;-88
2023/11/10 13:06:29;;;;;;;22.53;12.57;;;11.30;71.00;;;;;;812822;174;26398;-89
2023/11/10 13:09:00;;;;;;;40.53;21.73;;;11.20;72.60;;;;;;812102;177;26363;-89
2023/11/10 13:11:27;;;;;;;30.90;15.90;;;11.10;73.30;;;;;;812138;177;26429;-87
2023/11/10 13:13:53;;;;;;;12.63;6.30;;;11.10;73.50;;;;;;811855;177;26352;-89
2023/11/10 13:16:29;;;;;;;8.70;5.03;;;11.10;73.90;;;;;;811590;177;26368;-89
2023/11/10 13:18:56;;;;;;;4.30;2.60;;;11.10;72.80;;;;;;811675;177;26371;-88
2023/11/10 13:21:22;;;;;;;12.87;6.93;;;11.00;72.30;;;;;;811444;177;26368;-88
2023/11/10 13:23:49;;;;;;;44.67;25.20;;;11.00;73.80;;;;;;811571;174;26343;-89
2023/11/10 13:26:17;;;;;;;28.27;14.40;;;10.90;72.70;;;;;;811670;177;26367;-89
2023/11/10 13:28:42;;;;;;;2.90;2.00;;;11.00;73.50;;;;;;812492;177;26394;-88
2023/11/10 13:31:08;;;;;;;21.00;11.27;;;10.90;73.60;;;;;;812515;177;26352;-89
2023/11/10 13:33:35;;;;;;;4.80;3.00;;;10.90;73.10;;;;;;811871;177;26351;-89
2023/11/10 13:36:05;;;;;;;20.33;11.97;;;10.80;74.50;;;;;;811496;177;26914;-88
2023/11/10 13:38:28;;;;;;;10.40;6.00;;;10.90;73.40;;;;;;811185;174;26366;-88
2023/11/10 13:40:56;;;;;;;4.30;2.83;;;10.80;75.60;;;;;;811555;177;26375;-89
2023/11/10 13:43:21;;;;;;;20.40;12.03;;;10.80;74.60;;;;;;811401;177;26383;-88
2023/11/10 13:45:48;;;;;;;26.70;15.73;;;10.80;74.60;;;;;;811570;177;26339;-89
2023/11/10 13:48:15;;;;;;;10.60;5.40;;;10.80;76.30;;;;;;813700;175;26348;-88
2023/11/10 13:50:41;;;;;;;38.57;19.97;;;10.80;75.00;;;;;;813772;176;26350;-89
2023/11/10 13:53:14;;;;;;;45.67;26.37;;;10.80;75.00;;;;;;813204;177;26930;-88
2023/11/10 13:55:40;;;;;;;7.97;4.40;;;10.80;75.40;;;;;;813211;174;26692;-88
2023/11/10 13:58:07;;;;;;;21.37;11.20;;;10.90;75.40;;;;;;812580;177;26588;-88
2023/11/10 14:00:34;;;;;;;23.73;14.00;;;11.00;74.80;;;;;;812931;174;26418;-87
2023/11/10 14:03:00;;;;;;;7.80;5.27;;;11.10;75.80;;;;;;812783;177;26405;-87
2023/11/10 14:05:27;;;;;;;5.37;3.40;;;11.20;74.60;;;;;;812442;176;26380;-86
2023/11/10 14:07:53;;;;;;;3.47;1.80;;;11.20;75.30;;;;;;812024;177;26383;-87
2023/11/10 14:10:21;;;;;;;1.77;1.57;;;11.20;74.80;;;;;;812107;177;26359;-89
2023/11/10 14:12:48;;;;;;;33.87;19.07;;;11.20;75.80;;;;;;812053;177;26383;-88
2023/11/10 14:15:15;;;;;;;4.13;1.80;;;11.10;75.70;;;;;;812014;177;26932;-88
2023/11/10 14:17:40;;;;;;;8.63;4.60;;;11.00;75.30;;;;;;811819;177;26969;-88
2023/11/10 14:20:09;;;;;;;8.47;4.97;;;11.00;74.20;;;;;;812080;177;26376;-89
2023/11/10 14:22:34;;;;;;;3.40;1.70;;;11.00;75.40;;;;;;811903;177;26371;-89